createdAt,value
2018-02-19T00:00:32.900Z,1.67
2018-02-19T00:01:32.873Z,1.64
2018-02-19T00:02:32.845Z,1.60
2018-02-19T00:03:32.816Z,1.63
2018-02-19T00:04:32.790Z,1.66
2018-02-19T00:05:32.758Z,1.67
2018-02-19T00:06:33.125Z,1.66
2018-02-19T00:07:32.704Z,1.66
2018-02-19T00:08:32.678Z,1.74
2018-02-19T00:09:32.645Z,1.58
2018-02-19T00:10:32.620Z,1.67
2018-02-19T00:11:32.589Z,1.67
2018-02-19T00:12:32.559Z,1.68
2018-02-19T00:13:32.530Z,1.66
2018-02-19T00:14:32.504Z,1.79
2018-02-19T00:15:32.477Z,1.63
2018-02-19T00:16:32.447Z,1.78
2018-02-19T00:17:32.416Z,1.78
2018-02-19T00:18:32.389Z,1.66
2018-02-19T00:19:32.365Z,1.79
2018-02-19T00:20:32.333Z,1.82
2018-02-19T00:21:32.302Z,1.66
2018-02-19T00:22:32.286Z,1.67
2018-02-19T00:23:32.281Z,1.81
2018-02-19T00:24:32.220Z,1.78
2018-02-19T00:25:32.191Z,1.82
2018-02-19T00:26:32.162Z,1.76
2018-02-19T00:27:32.134Z,1.76
2018-02-19T00:28:32.107Z,1.78
2018-02-19T00:29:32.077Z,1.78
2018-02-19T00:30:32.048Z,1.82
2018-02-19T00:31:32.021Z,1.81
2018-02-19T00:32:31.993Z,1.76
2018-02-19T00:33:31.963Z,1.81
2018-02-19T00:34:31.935Z,1.75
2018-02-19T00:35:31.908Z,1.79
2018-02-19T00:36:31.881Z,1.75
2018-02-19T00:37:31.852Z,1.79
2018-02-19T00:38:31.822Z,1.74
2018-02-19T00:39:31.795Z,1.76
2018-02-19T00:40:31.766Z,1.78
2018-02-19T00:41:31.741Z,1.75
2018-02-19T00:42:31.711Z,1.84
2018-02-19T00:43:31.681Z,1.78
2018-02-19T00:44:31.652Z,1.79
2018-02-19T00:45:31.626Z,1.78
2018-02-19T00:46:31.595Z,1.75
2018-02-19T00:47:31.567Z,1.79
2018-02-19T00:48:31.539Z,1.79
2018-02-19T00:49:31.516Z,1.76
2018-02-19T00:50:31.481Z,1.78
2018-02-19T00:51:31.454Z,1.76
2018-02-19T00:52:31.426Z,1.79
2018-02-19T00:53:31.398Z,1.79
2018-02-19T00:54:31.369Z,1.81
2018-02-19T00:55:31.344Z,1.81
2018-02-19T00:56:31.314Z,1.82
2018-02-19T00:57:31.283Z,1.85
2018-02-19T00:58:31.255Z,1.81
2018-02-19T00:59:31.229Z,1.85
2018-02-19T01:00:31.200Z,1.85
2018-02-19T01:01:31.171Z,1.89
2018-02-19T01:02:31.144Z,1.85
2018-02-19T01:03:31.129Z,1.86
2018-02-19T01:04:31.097Z,1.93
2018-02-19T01:05:31.058Z,1.93
2018-02-19T01:06:31.054Z,1.86
2018-02-19T01:07:31.053Z,1.89
2018-02-19T01:08:30.973Z,1.85
2018-02-19T01:09:30.947Z,2.00
2018-02-19T01:10:30.915Z,2.03
2018-02-19T01:11:30.890Z,2.00
2018-02-19T01:12:30.860Z,1.93
2018-02-19T01:13:30.831Z,1.97
2018-02-19T01:14:30.803Z,1.98
2018-02-19T01:15:30.774Z,1.95
2018-02-19T01:16:30.748Z,1.98
2018-02-19T01:17:30.721Z,2.03
2018-02-19T01:18:30.690Z,1.98
2018-02-19T01:19:30.663Z,1.95
2018-02-19T01:20:30.640Z,1.93
2018-02-19T01:21:30.606Z,1.98
2018-02-19T01:22:30.583Z,1.95
2018-02-19T01:23:30.551Z,1.97
2018-02-19T01:24:30.527Z,1.98
2018-02-19T01:25:30.495Z,2.03
2018-02-19T01:26:30.465Z,2.00
2018-02-19T01:27:30.437Z,2.01
2018-02-19T01:28:30.410Z,1.97
2018-02-19T01:29:30.379Z,1.92
2018-02-19T01:30:30.354Z,1.92
2018-02-19T01:31:30.326Z,1.92
2018-02-19T01:32:30.296Z,1.98
2018-02-19T01:33:30.270Z,1.89
2018-02-19T01:34:30.243Z,2.03
2018-02-19T01:35:30.213Z,1.95
2018-02-19T01:36:30.185Z,1.97
2018-02-19T01:37:30.156Z,2.05
2018-02-19T01:38:31.108Z,2.05
2018-02-19T01:39:30.101Z,2.07
2018-02-19T01:40:30.073Z,2.10
2018-02-19T01:41:30.042Z,2.07
2018-02-19T01:42:30.015Z,2.08
2018-02-19T01:43:29.988Z,2.05
2018-02-19T01:44:29.960Z,2.07
2018-02-19T01:45:29.935Z,2.04
2018-02-19T01:46:29.901Z,2.08
2018-02-19T01:47:29.876Z,2.08
2018-02-19T01:48:29.860Z,2.05
2018-02-19T01:49:29.818Z,2.04
2018-02-19T01:50:29.791Z,2.03
2018-02-19T01:51:29.762Z,2.05
2018-02-19T01:52:29.736Z,2.10
2018-02-19T01:53:29.705Z,2.07
2018-02-19T01:54:29.676Z,1.98
2018-02-19T01:55:29.649Z,2.01
2018-02-19T01:56:29.623Z,2.04
2018-02-19T01:57:29.592Z,2.10
2018-02-19T01:58:29.577Z,2.14
2018-02-19T01:59:29.535Z,2.10
2018-02-19T02:00:29.509Z,2.08
2018-02-19T02:01:29.483Z,2.18
2018-02-19T02:02:29.451Z,2.15
2018-02-19T02:03:29.425Z,2.21
2018-02-19T02:04:29.397Z,2.14
2018-02-19T02:05:29.380Z,2.18
2018-02-19T02:06:29.339Z,2.18
2018-02-19T02:07:29.314Z,2.08
2018-02-19T02:08:29.284Z,2.10
2018-02-19T02:09:29.254Z,2.08
2018-02-19T02:10:29.227Z,2.05
2018-02-19T02:11:29.198Z,2.05
2018-02-19T02:12:29.172Z,2.10
2018-02-19T02:13:29.143Z,1.98
2018-02-19T02:14:29.123Z,2.04
2018-02-19T02:15:29.089Z,2.04
2018-02-19T02:16:29.058Z,2.08
2018-02-19T02:17:29.029Z,2.05
2018-02-19T02:18:29.028Z,2.10
2018-02-19T02:19:28.974Z,2.05
2018-02-19T02:20:28.945Z,2.08
2018-02-19T02:21:28.915Z,1.97
2018-02-19T02:22:28.892Z,2.01
2018-02-19T02:23:28.860Z,2.08
2018-02-19T02:24:28.835Z,1.97
2018-02-19T02:25:28.803Z,1.95
2018-02-19T02:26:28.776Z,2.03
2018-02-19T02:27:28.746Z,1.95
2018-02-19T02:28:28.717Z,1.98
2018-02-19T02:29:28.689Z,1.86
2018-02-19T02:30:28.711Z,1.98
2018-02-19T02:31:28.634Z,1.92
2018-02-19T02:32:28.607Z,1.92
2018-02-19T02:33:28.580Z,1.88
2018-02-19T02:34:28.550Z,1.89
2018-02-19T02:35:28.521Z,1.88
2018-02-19T02:36:28.495Z,1.89
2018-02-19T02:37:28.462Z,1.84
2018-02-19T02:38:28.438Z,1.92
2018-02-19T02:39:29.131Z,1.92
2018-02-19T02:40:28.378Z,1.78
2018-02-19T02:41:28.354Z,1.78
2018-02-19T02:42:28.326Z,1.78
2018-02-19T02:43:28.296Z,1.78
2018-02-19T02:44:28.267Z,1.81
2018-02-19T02:45:28.236Z,1.79
2018-02-19T02:46:28.211Z,1.66
2018-02-19T02:47:28.185Z,1.81
2018-02-19T02:48:28.154Z,1.75
2018-02-19T02:49:28.124Z,1.79
2018-02-19T02:50:28.122Z,1.81
2018-02-19T02:51:28.066Z,1.82
2018-02-19T02:52:28.042Z,1.82
2018-02-19T02:53:28.012Z,1.75
2018-02-19T02:54:27.984Z,1.78
2018-02-19T02:55:27.956Z,1.81
2018-02-19T02:56:27.931Z,1.81
2018-02-19T02:57:27.905Z,1.85
2018-02-19T02:58:27.870Z,1.78
2018-02-19T02:59:27.846Z,1.84
2018-02-19T03:00:27.813Z,1.78
2018-02-19T03:01:27.788Z,1.81
2018-02-19T03:02:27.759Z,1.79
2018-02-19T03:03:27.729Z,1.78
2018-02-19T03:04:27.700Z,1.81
2018-02-19T03:05:27.671Z,1.81
2018-02-19T03:06:27.643Z,1.81
2018-02-19T03:07:27.616Z,1.85
2018-02-19T03:08:27.591Z,1.86
2018-02-19T03:09:27.559Z,1.84
2018-02-19T03:10:27.534Z,1.85
2018-02-19T03:11:27.501Z,1.85
2018-02-19T03:12:27.474Z,1.88
2018-02-19T03:13:27.446Z,1.89
2018-02-19T03:14:27.417Z,1.95
2018-02-19T03:15:27.388Z,1.92
2018-02-19T03:16:27.361Z,1.85
2018-02-19T03:17:27.332Z,2.00
2018-02-19T03:18:27.304Z,1.88
2018-02-19T03:19:27.279Z,1.95
2018-02-19T03:20:27.246Z,1.95
2018-02-19T03:21:27.218Z,2.01
2018-02-19T03:22:27.196Z,2.03
2018-02-19T03:23:27.163Z,1.88
2018-02-19T03:24:27.135Z,1.85
2018-02-19T03:25:27.105Z,1.86
2018-02-19T03:26:27.104Z,1.84
2018-02-19T03:27:27.050Z,1.82
2018-02-19T03:28:27.023Z,1.86
2018-02-19T03:29:26.995Z,1.93
2018-02-19T03:30:26.966Z,1.92
2018-02-19T03:31:26.938Z,1.86
2018-02-19T03:32:26.910Z,1.89
2018-02-19T03:33:26.883Z,1.92
2018-02-19T03:34:26.867Z,1.78
2018-02-19T03:35:26.864Z,1.79
2018-02-19T03:36:26.795Z,1.78
2018-02-19T03:37:26.771Z,1.78
2018-02-19T03:38:26.739Z,1.81
2018-02-19T03:39:26.714Z,1.74
2018-02-19T03:40:27.107Z,1.78
2018-02-19T03:41:26.664Z,1.78
2018-02-19T03:42:26.627Z,1.78
2018-02-19T03:43:26.598Z,1.84
2018-02-19T03:44:26.570Z,1.81
2018-02-19T03:45:26.540Z,1.84
2018-02-19T03:46:26.514Z,1.89
2018-02-19T03:47:26.485Z,1.78
2018-02-19T03:48:26.456Z,1.81
2018-02-19T03:49:26.426Z,1.76
2018-02-19T03:50:26.401Z,1.75
2018-02-19T03:51:26.382Z,1.84
2018-02-19T03:52:26.344Z,1.75
2018-02-19T03:53:26.315Z,1.76
2018-02-19T03:54:26.287Z,1.79
2018-02-19T03:55:26.260Z,1.71
2018-02-19T03:56:26.241Z,1.78
2018-02-19T03:57:26.201Z,1.71
2018-02-19T03:58:26.174Z,1.66
2018-02-19T03:59:26.147Z,1.75
2018-02-19T04:00:26.120Z,1.78
2018-02-19T04:01:26.089Z,1.78
2018-02-19T04:02:26.060Z,1.74
2018-02-19T04:03:26.037Z,1.74
2018-02-19T04:04:26.004Z,1.66
2018-02-19T04:05:25.976Z,1.74
2018-02-19T04:06:25.950Z,1.71
2018-02-19T04:07:25.920Z,1.63
2018-02-19T04:08:25.899Z,1.75
2018-02-19T04:09:25.863Z,1.75
2018-02-19T04:10:25.839Z,1.64
2018-02-19T04:11:25.808Z,1.75
2018-02-19T04:12:25.781Z,1.68
2018-02-19T04:13:25.751Z,1.61
2018-02-19T04:14:25.722Z,1.60
2018-02-19T04:15:25.695Z,1.68
2018-02-19T04:16:25.667Z,1.70
2018-02-19T04:17:25.638Z,1.75
2018-02-19T04:18:25.619Z,1.67
2018-02-19T04:19:25.580Z,1.68
2018-02-19T04:20:25.552Z,1.70
2018-02-19T04:21:25.528Z,1.60
2018-02-19T04:22:25.503Z,1.63
2018-02-19T04:23:25.474Z,1.60
2018-02-19T04:24:25.438Z,1.66
2018-02-19T04:25:25.411Z,1.58
2018-02-19T04:26:25.383Z,1.50
2018-02-19T04:27:25.376Z,1.53
2018-02-19T04:28:25.324Z,1.56
2018-02-19T04:29:25.299Z,1.57
2018-02-19T04:30:25.286Z,1.53
2018-02-19T04:31:25.239Z,1.53
2018-02-19T04:32:25.222Z,1.46
2018-02-19T04:33:25.186Z,1.46
2018-02-19T04:34:25.155Z,1.45
2018-02-19T04:35:25.127Z,1.50
2018-02-19T04:36:25.100Z,1.53
2018-02-19T04:37:25.070Z,1.49
2018-02-19T04:38:25.042Z,1.45
2018-02-19T04:39:25.017Z,1.40
2018-02-19T04:40:24.984Z,1.38
2018-02-19T04:41:25.089Z,1.42
2018-02-19T04:42:24.934Z,1.39
2018-02-19T04:43:24.899Z,1.32
2018-02-19T04:44:24.872Z,1.31
2018-02-19T04:45:24.843Z,1.36
2018-02-19T04:46:24.828Z,1.30
2018-02-19T04:47:24.786Z,1.28
2018-02-19T04:48:24.759Z,1.30
2018-02-19T04:49:24.739Z,1.34
2018-02-19T04:50:24.702Z,1.32
2018-02-19T04:51:24.673Z,1.34
2018-02-19T04:52:24.645Z,1.34
2018-02-19T04:53:24.615Z,1.31
2018-02-19T04:54:24.588Z,1.38
2018-02-19T04:55:24.563Z,1.30
2018-02-19T04:56:24.529Z,1.31
2018-02-19T04:57:24.558Z,1.31
2018-02-19T04:58:24.473Z,1.34
2018-02-19T04:59:24.445Z,1.32
2018-02-19T05:00:24.418Z,1.32
2018-02-19T05:01:24.387Z,1.32
2018-02-19T05:02:24.362Z,1.27
2018-02-19T05:03:24.331Z,1.34
2018-02-19T05:04:24.305Z,1.27
2018-02-19T05:05:24.273Z,1.21
2018-02-19T05:06:24.247Z,1.21
2018-02-19T05:07:24.217Z,1.30
2018-02-19T05:08:24.189Z,1.24
2018-02-19T05:09:24.164Z,1.27
2018-02-19T05:10:24.133Z,1.34
2018-02-19T05:11:24.104Z,1.22
2018-02-19T05:12:25.075Z,1.28
2018-02-19T05:13:24.046Z,1.31
2018-02-19T05:14:24.016Z,1.20
2018-02-19T05:15:23.991Z,1.27
2018-02-19T05:16:23.970Z,1.28
2018-02-19T05:17:23.929Z,1.28
2018-02-19T05:18:23.904Z,1.36
2018-02-19T05:19:23.874Z,1.32
2018-02-19T05:20:23.847Z,1.31
2018-02-19T05:21:23.821Z,1.36
2018-02-19T05:22:23.803Z,1.36
2018-02-19T05:23:23.759Z,1.25
2018-02-19T05:24:23.733Z,1.32
2018-02-19T05:25:23.702Z,1.30
2018-02-19T05:26:23.693Z,1.30
2018-02-19T05:27:23.647Z,1.32
2018-02-19T05:28:23.629Z,1.30
2018-02-19T05:29:23.617Z,1.36
2018-02-19T05:30:23.558Z,1.36
2018-02-19T05:31:23.569Z,1.34
2018-02-19T05:32:23.503Z,1.34
2018-02-19T05:33:23.473Z,1.27
2018-02-19T05:34:23.504Z,1.28
2018-02-19T05:35:23.430Z,1.20
2018-02-19T05:36:23.391Z,1.16
2018-02-19T05:37:23.361Z,1.38
2018-02-19T05:38:23.330Z,1.27
2018-02-19T05:39:23.305Z,1.13
2018-02-19T05:40:23.276Z,1.14
2018-02-19T05:41:23.255Z,1.34
2018-02-19T05:42:23.216Z,1.30
2018-02-19T05:43:23.189Z,1.31
2018-02-19T05:44:23.160Z,1.27
2018-02-19T05:45:23.131Z,1.27
2018-02-19T05:46:23.170Z,1.30
2018-02-19T05:47:23.076Z,1.27
2018-02-19T05:48:23.055Z,1.30
2018-02-19T05:49:23.018Z,1.30
2018-02-19T05:50:22.991Z,1.21
2018-02-19T05:51:22.959Z,1.27
2018-02-19T05:52:22.932Z,1.28
2018-02-19T05:53:22.903Z,1.28
2018-02-19T05:54:22.878Z,1.36
2018-02-19T05:55:22.847Z,1.32
2018-02-19T05:56:22.822Z,1.38
2018-02-19T05:57:22.788Z,1.31
2018-02-19T05:58:22.820Z,1.43
2018-02-19T05:59:22.731Z,1.42
2018-02-19T06:00:22.704Z,1.40
2018-02-19T06:01:22.682Z,1.40
2018-02-19T06:02:22.652Z,1.45
2018-02-19T06:03:22.628Z,1.39
2018-02-19T06:04:22.594Z,1.48
2018-02-19T06:05:22.562Z,1.45
2018-02-19T06:06:22.533Z,1.50
2018-02-19T06:07:22.512Z,1.46
2018-02-19T06:08:22.481Z,1.42
2018-02-19T06:09:22.451Z,1.43
2018-02-19T06:10:22.417Z,1.42
2018-02-19T06:11:22.391Z,1.36
2018-02-19T06:12:22.360Z,1.38
2018-02-19T06:13:23.053Z,1.27
2018-02-19T06:14:22.304Z,1.31
2018-02-19T06:15:22.276Z,1.31
2018-02-19T06:16:22.249Z,1.28
2018-02-19T06:17:22.218Z,1.25
2018-02-19T06:18:22.193Z,1.30
2018-02-19T06:19:22.161Z,1.28
2018-02-19T06:20:22.136Z,1.13
2018-02-19T06:21:22.104Z,1.34
2018-02-19T06:22:22.077Z,1.34
2018-02-19T06:23:22.052Z,1.20
2018-02-19T06:24:22.020Z,1.21
2018-02-19T06:25:21.991Z,1.21
2018-02-19T06:26:21.963Z,1.13
2018-02-19T06:27:21.933Z,1.13
2018-02-19T06:28:21.906Z,1.09
2018-02-19T06:29:21.877Z,1.10
2018-02-19T06:30:21.848Z,1.07
2018-02-19T06:31:21.820Z,1.12
2018-02-19T06:32:21.791Z,1.07
2018-02-19T06:33:21.764Z,1.12
2018-02-19T06:34:21.734Z,1.06
2018-02-19T06:35:21.705Z,1.07
2018-02-19T06:36:21.679Z,1.16
2018-02-19T06:37:21.647Z,1.10
2018-02-19T06:38:21.621Z,1.16
2018-02-19T06:39:21.592Z,1.20
2018-02-19T06:40:21.560Z,1.20
2018-02-19T06:41:21.532Z,1.27
2018-02-19T06:42:21.504Z,1.21
2018-02-19T06:43:21.525Z,1.14
2018-02-19T06:44:21.451Z,1.25
2018-02-19T06:45:21.419Z,1.27
2018-02-19T06:46:21.391Z,1.28
2018-02-19T06:47:21.362Z,1.36
2018-02-19T06:48:21.333Z,1.42
2018-02-19T06:49:21.304Z,1.40
2018-02-19T06:50:21.275Z,1.50
2018-02-19T06:51:21.246Z,1.28
2018-02-19T06:52:21.218Z,1.32
2018-02-19T06:53:21.188Z,1.30
2018-02-19T06:54:21.213Z,1.36
2018-02-19T06:55:21.131Z,1.40
2018-02-19T06:56:21.103Z,1.36
2018-02-19T06:57:21.079Z,1.45
2018-02-19T06:58:21.046Z,1.45
2018-02-19T06:59:21.018Z,1.45
2018-02-19T07:00:20.994Z,1.45
2018-02-19T07:01:20.959Z,1.45
2018-02-19T07:02:20.932Z,1.48
2018-02-19T07:03:20.904Z,1.45
2018-02-19T07:04:20.874Z,1.56
2018-02-19T07:05:20.847Z,1.60
2018-02-19T07:06:20.816Z,1.50
2018-02-19T07:07:20.787Z,1.53
2018-02-19T07:08:20.760Z,1.53
2018-02-19T07:09:20.730Z,1.61
2018-02-19T07:10:20.704Z,1.56
2018-02-19T07:11:20.675Z,1.64
2018-02-19T07:12:20.649Z,1.63
2018-02-19T07:13:20.617Z,1.66
2018-02-19T07:14:21.152Z,1.64
2018-02-19T07:15:20.612Z,1.74
2018-02-19T07:16:20.532Z,1.76
2018-02-19T07:17:20.503Z,1.74
2018-02-19T07:18:20.527Z,1.71
2018-02-19T07:19:20.447Z,1.84
2018-02-19T07:20:20.497Z,1.79
2018-02-19T07:21:20.392Z,1.76
2018-02-19T07:22:20.363Z,1.82
2018-02-19T07:23:20.340Z,1.86
2018-02-19T07:24:20.305Z,1.68
2018-02-19T07:25:20.279Z,1.79
2018-02-19T07:26:20.248Z,1.70
2018-02-19T07:27:20.221Z,1.82
2018-02-19T07:28:20.192Z,1.67
2018-02-19T07:29:20.163Z,1.82
2018-02-19T07:30:20.136Z,1.76
2018-02-19T07:31:20.110Z,1.79
2018-02-19T07:32:20.078Z,1.76
2018-02-19T07:33:20.050Z,1.79
2018-02-19T07:34:20.022Z,1.85
2018-02-19T07:35:19.994Z,1.76
2018-02-19T07:36:19.966Z,1.88
2018-02-19T07:37:19.937Z,1.85
2018-02-19T07:38:19.909Z,1.75
2018-02-19T07:39:19.882Z,1.75
2018-02-19T07:40:19.854Z,1.79
2018-02-19T07:41:19.827Z,1.82
2018-02-19T07:42:19.797Z,1.88
2018-02-19T07:43:19.774Z,1.88
2018-02-19T07:44:20.575Z,1.93
2018-02-19T07:45:19.711Z,1.85
2018-02-19T07:46:19.684Z,1.92
2018-02-19T07:47:19.655Z,1.82
2018-02-19T07:48:19.628Z,1.88
2018-02-19T07:49:19.599Z,1.88
2018-02-19T07:50:19.610Z,1.89
2018-02-19T07:51:19.542Z,1.92
2018-02-19T07:52:19.515Z,1.85
2018-02-19T07:53:19.495Z,1.88
2018-02-19T07:54:19.456Z,1.88
2018-02-19T07:55:19.430Z,1.85
2018-02-19T07:56:19.401Z,1.86
2018-02-19T07:57:19.374Z,1.86
2018-02-19T07:58:19.348Z,1.84
2018-02-19T07:59:19.320Z,1.86
2018-02-19T08:00:19.291Z,1.86
2018-02-19T08:01:19.261Z,1.85
2018-02-19T08:02:19.233Z,1.88
2018-02-19T08:03:19.207Z,1.86
2018-02-19T08:04:19.179Z,1.78
2018-02-19T08:05:19.150Z,1.92
2018-02-19T08:06:19.121Z,1.89
2018-02-19T08:07:19.094Z,1.88
2018-02-19T08:08:19.067Z,1.89
2018-02-19T08:09:19.040Z,1.89
2018-02-19T08:10:19.008Z,2.03
2018-02-19T08:11:18.989Z,1.95
2018-02-19T08:12:18.954Z,1.97
2018-02-19T08:13:18.925Z,2.10
2018-02-19T08:14:18.899Z,2.05
2018-02-19T08:15:18.872Z,2.18
2018-02-19T08:16:18.852Z,2.18
2018-02-19T08:17:18.812Z,2.19
2018-02-19T08:18:18.833Z,2.26
2018-02-19T08:19:18.758Z,2.21
2018-02-19T08:20:18.800Z,2.28
2018-02-19T08:21:18.702Z,2.28
2018-02-19T08:22:18.677Z,2.28
2018-02-19T08:23:18.648Z,2.32
2018-02-19T08:24:18.619Z,2.41
2018-02-19T08:25:18.593Z,2.44
2018-02-19T08:26:18.564Z,2.50
2018-02-19T08:27:18.536Z,2.55
2018-02-19T08:28:18.516Z,2.57
2018-02-19T08:29:18.480Z,2.58
2018-02-19T08:30:18.454Z,2.44
2018-02-19T08:31:18.424Z,2.50
2018-02-19T08:32:18.397Z,2.57
2018-02-19T08:33:18.371Z,2.52
2018-02-19T08:34:18.343Z,2.55
2018-02-19T08:35:18.315Z,2.34
2018-02-19T08:36:18.290Z,2.32
2018-02-19T08:37:18.259Z,2.36
2018-02-19T08:38:18.232Z,2.25
2018-02-19T08:39:18.204Z,2.23
2018-02-19T08:40:18.176Z,2.21
2018-02-19T08:41:18.147Z,2.18
2018-02-19T08:42:18.123Z,2.22
2018-02-19T08:43:18.095Z,2.19
2018-02-19T08:44:18.066Z,2.21
2018-02-19T08:45:18.499Z,2.28
2018-02-19T08:46:18.010Z,2.34
2018-02-19T08:47:17.985Z,2.43
2018-02-19T08:48:17.959Z,2.50
2018-02-19T08:49:17.928Z,2.55
2018-02-19T08:50:17.902Z,2.52
2018-02-19T08:51:17.876Z,2.65
2018-02-19T08:52:17.846Z,2.76
2018-02-19T08:53:17.824Z,2.75
2018-02-19T08:54:17.793Z,2.85
2018-02-19T08:55:17.766Z,2.76
2018-02-19T08:56:17.739Z,2.73
2018-02-19T08:57:17.710Z,2.76
2018-02-19T08:58:17.685Z,2.70
2018-02-19T08:59:17.655Z,2.73
2018-02-19T09:00:17.634Z,2.61
2018-02-19T09:01:17.604Z,2.59
2018-02-19T09:02:17.572Z,2.65
2018-02-19T09:03:17.548Z,2.79
2018-02-19T09:04:17.520Z,2.70
2018-02-19T09:05:17.494Z,2.73
2018-02-19T09:06:17.488Z,2.73
2018-02-19T09:07:17.437Z,2.80
2018-02-19T09:08:17.410Z,2.79
2018-02-19T09:09:17.386Z,2.80
2018-02-19T09:10:17.354Z,2.75
2018-02-19T09:11:17.327Z,2.64
2018-02-19T09:12:17.302Z,2.58
2018-02-19T09:13:17.272Z,2.51
2018-02-19T09:14:17.246Z,2.51
2018-02-19T09:15:17.219Z,2.52
2018-02-19T09:16:17.192Z,2.57
2018-02-19T09:17:17.164Z,2.54
2018-02-19T09:18:17.136Z,2.55
2018-02-19T09:19:17.108Z,2.65
2018-02-19T09:20:17.082Z,2.73
2018-02-19T09:21:17.054Z,2.75
2018-02-19T09:22:17.026Z,2.76
2018-02-19T09:23:16.999Z,2.64
2018-02-19T09:24:16.972Z,2.59
2018-02-19T09:25:16.946Z,2.62
2018-02-19T09:26:16.918Z,2.58
2018-02-19T09:27:16.890Z,2.55
2018-02-19T09:28:16.863Z,2.62
2018-02-19T09:29:16.835Z,2.52
2018-02-19T09:30:16.807Z,2.54
2018-02-19T09:31:16.781Z,2.51
2018-02-19T09:32:16.753Z,2.64
2018-02-19T09:33:16.728Z,2.54
2018-02-19T09:34:16.699Z,2.62
2018-02-19T09:35:16.681Z,2.73
2018-02-19T09:36:16.645Z,2.80
2018-02-19T09:37:19.548Z,2.77
2018-02-19T09:38:16.592Z,2.75
2018-02-19T09:39:16.562Z,2.90
2018-02-19T09:40:16.539Z,2.93
2018-02-19T09:41:16.509Z,2.95
2018-02-19T09:42:16.481Z,3.08
2018-02-19T09:43:16.480Z,3.09
2018-02-19T09:44:16.430Z,3.15
2018-02-19T09:45:16.399Z,3.26
2018-02-19T09:46:16.477Z,3.36
2018-02-19T09:47:16.346Z,3.37
2018-02-19T09:48:16.319Z,3.48
2018-02-19T09:49:16.293Z,3.50
2018-02-19T09:50:16.267Z,3.68
2018-02-19T09:51:16.237Z,3.63
2018-02-19T09:52:16.214Z,3.67
2018-02-19T09:53:16.185Z,3.61
2018-02-19T09:54:16.159Z,3.53
2018-02-19T09:55:16.131Z,3.49
2018-02-19T09:56:16.104Z,3.53
2018-02-19T09:57:16.078Z,3.52
2018-02-19T09:58:16.054Z,3.49
2018-02-19T09:59:16.024Z,3.49
2018-02-19T10:00:16.000Z,3.50
2018-02-19T10:01:15.972Z,3.50
2018-02-19T10:02:15.945Z,3.66
2018-02-19T10:03:15.936Z,3.70
2018-02-19T10:04:15.904Z,3.85
2018-02-19T10:05:15.868Z,3.82
2018-02-19T10:06:15.842Z,4.02
2018-02-19T10:07:15.816Z,3.95
2018-02-19T10:08:15.790Z,3.99
2018-02-19T10:09:15.763Z,4.10
2018-02-19T10:10:15.771Z,3.91
2018-02-19T10:11:15.723Z,4.00
2018-02-19T10:12:15.693Z,3.77
2018-02-19T10:13:15.657Z,3.73
2018-02-19T10:14:15.633Z,3.73
2018-02-19T10:15:15.607Z,3.77
2018-02-19T10:16:15.581Z,3.78
2018-02-19T10:17:16.552Z,3.81
2018-02-19T10:18:15.531Z,3.84
2018-02-19T10:19:15.504Z,3.89
2018-02-19T10:20:15.476Z,3.95
2018-02-19T10:21:15.451Z,4.06
2018-02-19T10:22:15.427Z,4.04
2018-02-19T10:23:15.401Z,4.10
2018-02-19T10:24:15.376Z,4.12
2018-02-19T10:25:15.350Z,4.14
2018-02-19T10:26:15.321Z,4.20
2018-02-19T10:27:15.296Z,4.38
2018-02-19T10:28:15.274Z,4.38
2018-02-19T10:29:15.245Z,4.45
2018-02-19T10:30:15.219Z,4.57
2018-02-19T10:31:15.198Z,4.53
2018-02-19T10:32:15.169Z,4.57
2018-02-19T10:33:15.142Z,4.56
2018-02-19T10:34:15.115Z,4.67
2018-02-19T10:35:15.092Z,4.68
2018-02-19T10:36:15.064Z,4.63
2018-02-19T10:37:15.047Z,4.71
2018-02-19T10:38:15.015Z,4.68
2018-02-19T10:39:14.989Z,4.71
2018-02-19T10:40:14.970Z,4.76
2018-02-19T10:41:14.938Z,4.86
2018-02-19T10:42:14.913Z,4.97
2018-02-19T10:43:14.889Z,5.04
2018-02-19T10:44:14.862Z,5.02
2018-02-19T10:45:14.839Z,5.15
2018-02-19T10:46:14.812Z,5.16
2018-02-19T10:47:14.787Z,5.10
2018-02-19T10:48:14.764Z,5.20
2018-02-19T10:49:14.737Z,5.15
2018-02-19T10:50:14.713Z,5.08
2018-02-19T10:51:14.689Z,5.02
2018-02-19T10:52:14.662Z,4.98
2018-02-19T10:53:14.641Z,4.98
2018-02-19T10:54:14.613Z,5.04
2018-02-19T10:55:14.588Z,5.02
2018-02-19T10:56:14.564Z,4.92
2018-02-19T10:57:14.538Z,4.86
2018-02-19T10:58:14.513Z,5.01
2018-02-19T10:59:14.490Z,4.94
2018-02-19T11:00:14.466Z,5.02
2018-02-19T11:01:14.442Z,5.13
2018-02-19T11:02:14.439Z,5.20
2018-02-19T11:03:14.393Z,5.13
2018-02-19T11:04:14.368Z,5.26
2018-02-19T11:05:14.347Z,5.20
2018-02-19T11:06:14.317Z,5.22
2018-02-19T11:07:14.293Z,5.08
2018-02-19T11:08:14.272Z,4.97
2018-02-19T11:09:14.247Z,4.98
2018-02-19T11:10:14.220Z,4.78
2018-02-19T11:11:14.194Z,4.70
2018-02-19T11:12:14.172Z,4.82
2018-02-19T11:13:14.149Z,4.70
2018-02-19T11:14:14.124Z,4.74
2018-02-19T11:15:14.099Z,4.79
2018-02-19T11:16:14.077Z,4.87
2018-02-19T11:17:14.049Z,5.01
2018-02-19T11:18:14.444Z,5.04
2018-02-19T11:19:14.002Z,5.16
2018-02-19T11:20:13.978Z,5.12
2018-02-19T11:21:13.955Z,5.20
2018-02-19T11:22:13.929Z,5.23
2018-02-19T11:23:13.907Z,5.41
2018-02-19T11:24:13.937Z,5.46
2018-02-19T11:25:13.857Z,5.56
2018-02-19T11:26:13.833Z,5.59
2018-02-19T11:27:13.816Z,5.55
2018-02-19T11:28:13.786Z,5.58
2018-02-19T11:29:13.765Z,5.62
2018-02-19T11:30:13.738Z,5.69
2018-02-19T11:31:13.713Z,5.81
2018-02-19T11:32:13.691Z,5.79
2018-02-19T11:33:13.666Z,5.70
2018-02-19T11:34:13.641Z,5.59
2018-02-19T11:35:13.619Z,5.49
2018-02-19T11:36:13.599Z,5.49
2018-02-19T11:37:13.570Z,5.58
2018-02-19T11:38:13.548Z,5.67
2018-02-19T11:39:13.551Z,5.69
2018-02-19T11:40:13.499Z,5.79
2018-02-19T11:41:13.475Z,5.83
2018-02-19T11:42:13.451Z,5.84
2018-02-19T11:43:13.437Z,5.88
2018-02-19T11:44:13.437Z,5.92
2018-02-19T11:45:13.380Z,5.87
2018-02-19T11:46:13.357Z,5.83
2018-02-19T11:47:13.334Z,5.94
2018-02-19T11:48:13.310Z,5.84
2018-02-19T11:49:13.286Z,5.79
2018-02-19T11:50:13.262Z,5.67
2018-02-19T11:51:13.238Z,5.64
2018-02-19T11:52:13.215Z,5.67
2018-02-19T11:53:13.190Z,5.65
2018-02-19T11:54:13.168Z,5.59
2018-02-19T11:55:13.144Z,5.46
2018-02-19T11:56:13.121Z,5.62
2018-02-19T11:57:13.097Z,5.72
2018-02-19T11:58:13.072Z,5.87
2018-02-19T11:59:13.050Z,6.02
2018-02-19T12:00:13.027Z,6.10
2018-02-19T12:01:13.003Z,6.25
2018-02-19T12:02:12.980Z,6.31
2018-02-19T12:03:12.957Z,6.22
2018-02-19T12:04:12.936Z,6.17
2018-02-19T12:05:12.909Z,6.19
2018-02-19T12:06:12.885Z,6.12
2018-02-19T12:07:12.862Z,6.16
2018-02-19T12:08:12.841Z,6.17
2018-02-19T12:09:12.818Z,6.09
2018-02-19T12:10:12.800Z,6.16
2018-02-19T12:11:12.769Z,6.26
2018-02-19T12:12:12.747Z,6.36
2018-02-19T12:13:12.726Z,6.35
2018-02-19T12:14:12.703Z,6.26
2018-02-19T12:15:12.678Z,6.10
2018-02-19T12:16:12.656Z,6.16
2018-02-19T12:17:12.636Z,6.19
2018-02-19T12:18:12.611Z,6.28
2018-02-19T12:19:12.586Z,6.49
2018-02-19T12:20:12.563Z,6.65
2018-02-19T12:21:12.541Z,6.65
2018-02-19T12:22:12.517Z,6.75
2018-02-19T12:23:12.496Z,6.87
2018-02-19T12:24:12.480Z,6.92
2018-02-19T12:25:12.449Z,7.03
2018-02-19T12:26:12.428Z,7.07
2018-02-19T12:27:12.402Z,7.07
2018-02-19T12:28:12.382Z,7.11
2018-02-19T12:29:12.357Z,7.11
2018-02-19T12:30:12.335Z,7.25
2018-02-19T12:31:12.314Z,7.25
2018-02-19T12:32:12.290Z,7.25
2018-02-19T12:33:12.267Z,7.23
2018-02-19T12:34:12.244Z,7.40
2018-02-19T12:35:12.222Z,7.74
2018-02-19T12:36:12.197Z,7.83
2018-02-19T12:37:12.175Z,7.93
2018-02-19T12:38:12.152Z,8.23
2018-02-19T12:39:12.131Z,8.39
2018-02-19T12:40:12.110Z,8.44
2018-02-19T12:41:12.086Z,8.57
2018-02-19T12:42:12.064Z,8.68
2018-02-19T12:43:12.041Z,8.61
2018-02-19T12:44:12.020Z,8.53
2018-02-19T12:45:12.022Z,8.53
2018-02-19T12:46:11.975Z,8.39
2018-02-19T12:47:11.952Z,8.39
2018-02-19T12:48:11.931Z,8.46
2018-02-19T12:49:11.906Z,8.41
2018-02-19T12:50:12.411Z,8.53
2018-02-19T12:51:11.866Z,8.63
2018-02-19T12:52:11.842Z,8.72
2018-02-19T12:53:11.824Z,8.86
2018-02-19T12:54:11.800Z,8.97
2018-02-19T12:55:11.802Z,9.12
2018-02-19T12:56:11.758Z,9.22
2018-02-19T12:57:11.735Z,9.26
2018-02-19T12:58:11.744Z,9.26
2018-02-19T12:59:11.694Z,9.21
2018-02-19T13:00:11.672Z,9.21
2018-02-19T13:01:11.647Z,9.22
2018-02-19T13:02:11.628Z,9.33
2018-02-19T13:03:11.607Z,9.45
2018-02-19T13:04:11.585Z,9.52
2018-02-19T13:05:11.564Z,9.51
2018-02-19T13:06:11.543Z,9.55
2018-02-19T13:07:11.522Z,9.74
2018-02-19T13:08:11.502Z,9.91
2018-02-19T13:09:11.487Z,9.92
2018-02-19T13:10:11.460Z,9.88
2018-02-19T13:11:11.439Z,9.91
2018-02-19T13:12:11.418Z,9.88
2018-02-19T13:13:11.396Z,9.81
2018-02-19T13:14:11.399Z,9.73
2018-02-19T13:15:11.356Z,9.66
2018-02-19T13:16:11.337Z,9.55
2018-02-19T13:17:11.317Z,9.45
2018-02-19T13:18:11.294Z,9.49